sensor_id;sensor_type;location;lat;lon;timestamp;P1;durP1;ratioP1;P2;durP2;ratioP2
8572;SDS011;4324;42.012;24.872;2023-03-14T00:01:26;5.73;;;4.37;;
8572;SDS011;4324;42.012;24.872;2023-03-14T00:03:54;4.97;;;4.43;;
8572;SDS011;4324;42.012;24.872;2023-03-14T00:06:20;6.87;;;4.53;;
8572;SDS011;4324;42.012;24.872;2023-03-14T00:08:48;4.57;;;3.93;;
8572;SDS011;4324;42.012;24.872;2023-03-14T00:11:17;4.77;;;4.20;;
8572;SDS011;4324;42.012;24.872;2023-03-14T00:13:46;5.00;;;4.33;;
8572;SDS011;4324;42.012;24.872;2023-03-14T00:16:13;5.03;;;4.53;;
8572;SDS011;4324;42.012;24.872;2023-03-14T00:18:42;6.90;;;4.60;;
8572;SDS011;4324;42.012;24.872;2023-03-14T00:21:09;5.13;;;4.17;;
8572;SDS011;4324;42.012;24.872;2023-03-14T00:23:38;4.67;;;3.83;;
8572;SDS011;4324;42.012;24.872;2023-03-14T00:26:06;6.03;;;4.40;;
8572;SDS011;4324;42.012;24.872;2023-03-14T00:28:34;7.13;;;4.07;;
8572;SDS011;4324;42.012;24.872;2023-03-14T00:31:02;8.57;;;4.93;;
8572;SDS011;4324;42.012;24.872;2023-03-14T00:33:30;10.73;;;5.93;;
8572;SDS011;4324;42.012;24.872;2023-03-14T00:35:58;10.53;;;5.90;;
8572;SDS011;4324;42.012;24.872;2023-03-14T00:38:28;12.27;;;6.47;;
8572;SDS011;4324;42.012;24.872;2023-03-14T00:40:56;10.27;;;6.27;;
8572;SDS011;4324;42.012;24.872;2023-03-14T00:43:23;6.10;;;3.87;;
8572;SDS011;4324;42.012;24.872;2023-03-14T00:45:51;6.23;;;4.20;;
8572;SDS011;4324;42.012;24.872;2023-03-14T00:48:18;5.63;;;3.83;;
8572;SDS011;4324;42.012;24.872;2023-03-14T00:50:46;5.40;;;3.70;;
8572;SDS011;4324;42.012;24.872;2023-03-14T00:53:14;6.47;;;4.00;;
8572;SDS011;4324;42.012;24.872;2023-03-14T00:55:42;5.23;;;3.60;;
8572;SDS011;4324;42.012;24.872;2023-03-14T00:58:10;5.87;;;4.40;;
8572;SDS011;4324;42.012;24.872;2023-03-14T01:00:37;7.97;;;4.13;;
8572;SDS011;4324;42.012;24.872;2023-03-14T01:03:04;5.03;;;4.30;;
8572;SDS011;4324;42.012;24.872;2023-03-14T01:05:32;6.50;;;4.30;;
8572;SDS011;4324;42.012;24.872;2023-03-14T01:07:59;7.10;;;4.57;;
8572;SDS011;4324;42.012;24.872;2023-03-14T01:10:27;9.33;;;6.10;;
8572;SDS011;4324;42.012;24.872;2023-03-14T01:12:54;9.10;;;5.90;;
8572;SDS011;4324;42.012;24.872;2023-03-14T01:15:21;7.20;;;5.30;;
8572;SDS011;4324;42.012;24.872;2023-03-14T01:17:48;7.73;;;5.33;;
8572;SDS011;4324;42.012;24.872;2023-03-14T01:20:15;7.90;;;4.90;;
8572;SDS011;4324;42.012;24.872;2023-03-14T01:22:43;6.93;;;4.97;;
8572;SDS011;4324;42.012;24.872;2023-03-14T01:25:11;5.23;;;4.70;;
8572;SDS011;4324;42.012;24.872;2023-03-14T01:27:41;5.83;;;4.47;;
8572;SDS011;4324;42.012;24.872;2023-03-14T01:30:09;7.40;;;4.13;;
8572;SDS011;4324;42.012;24.872;2023-03-14T01:32:37;4.47;;;3.60;;
8572;SDS011;4324;42.012;24.872;2023-03-14T01:35:05;6.43;;;3.57;;
8572;SDS011;4324;42.012;24.872;2023-03-14T01:37:32;7.03;;;3.50;;
8572;SDS011;4324;42.012;24.872;2023-03-14T01:39:59;4.93;;;3.53;;
8572;SDS011;4324;42.012;24.872;2023-03-14T01:42:26;4.70;;;3.77;;
8572;SDS011;4324;42.012;24.872;2023-03-14T01:44:55;4.70;;;3.20;;
8572;SDS011;4324;42.012;24.872;2023-03-14T01:47:23;4.30;;;3.33;;
8572;SDS011;4324;42.012;24.872;2023-03-14T01:49:51;5.37;;;3.80;;
8572;SDS011;4324;42.012;24.872;2023-03-14T01:52:23;4.57;;;3.47;;
8572;SDS011;4324;42.012;24.872;2023-03-14T01:54:54;3.23;;;2.93;;
8572;SDS011;4324;42.012;24.872;2023-03-14T01:57:25;4.73;;;3.27;;
8572;SDS011;4324;42.012;24.872;2023-03-14T01:59:58;4.80;;;3.87;;
8572;SDS011;4324;42.012;24.872;2023-03-14T02:02:29;5.53;;;3.93;;
8572;SDS011;4324;42.012;24.872;2023-03-14T02:04:56;5.07;;;3.67;;
8572;SDS011;4324;42.012;24.872;2023-03-14T02:07:25;5.10;;;3.50;;
8572;SDS011;4324;42.012;24.872;2023-03-14T02:09:56;4.73;;;3.60;;
8572;SDS011;4324;42.012;24.872;2023-03-14T02:12:25;5.77;;;4.10;;
8572;SDS011;4324;42.012;24.872;2023-03-14T02:14:53;5.73;;;4.10;;
8572;SDS011;4324;42.012;24.872;2023-03-14T02:17:21;33.27;;;12.07;;
8572;SDS011;4324;42.012;24.872;2023-03-14T02:19:57;27.80;;;12.27;;
8572;SDS011;4324;42.012;24.872;2023-03-14T02:22:35;8.47;;;5.30;;
8572;SDS011;4324;42.012;24.872;2023-03-14T02:25:06;4.47;;;3.50;;
8572;SDS011;4324;42.012;24.872;2023-03-14T02:27:36;3.30;;;3.00;;
8572;SDS011;4324;42.012;24.872;2023-03-14T02:30:05;4.60;;;3.50;;
8572;SDS011;4324;42.012;24.872;2023-03-14T02:32:35;3.17;;;2.87;;
8572;SDS011;4324;42.012;24.872;2023-03-14T02:35:06;3.20;;;2.90;;
8572;SDS011;4324;42.012;24.872;2023-03-14T02:37:38;4.13;;;3.30;;
8572;SDS011;4324;42.012;24.872;2023-03-14T02:40:09;4.00;;;3.60;;
8572;SDS011;4324;42.012;24.872;2023-03-14T02:42:38;3.53;;;3.00;;
8572;SDS011;4324;42.012;24.872;2023-03-14T02:48:11;3.70;;;3.40;;
8572;SDS011;4324;42.012;24.872;2023-03-14T02:50:42;5.37;;;3.80;;
8572;SDS011;4324;42.012;24.872;2023-03-14T02:53:12;4.30;;;3.10;;
8572;SDS011;4324;42.012;24.872;2023-03-14T02:55:40;4.53;;;3.03;;
8572;SDS011;4324;42.012;24.872;2023-03-14T02:58:12;3.43;;;2.87;;
8572;SDS011;4324;42.012;24.872;2023-03-14T03:00:39;4.73;;;3.43;;
8572;SDS011;4324;42.012;24.872;2023-03-14T03:03:06;5.43;;;3.60;;
8572;SDS011;4324;42.012;24.872;2023-03-14T03:05:33;6.20;;;4.47;;
8572;SDS011;4324;42.012;24.872;2023-03-14T03:08:02;4.63;;;4.10;;
8572;SDS011;4324;42.012;24.872;2023-03-14T03:10:30;4.80;;;4.17;;
8572;SDS011;4324;42.012;24.872;2023-03-14T03:12:57;5.33;;;4.20;;
8572;SDS011;4324;42.012;24.872;2023-03-14T03:15:25;6.60;;;4.50;;
8572;SDS011;4324;42.012;24.872;2023-03-14T03:17:52;6.33;;;3.97;;
8572;SDS011;4324;42.012;24.872;2023-03-14T03:20:19;4.50;;;3.30;;
8572;SDS011;4324;42.012;24.872;2023-03-14T03:22:46;5.20;;;3.60;;
8572;SDS011;4324;42.012;24.872;2023-03-14T03:25:15;4.57;;;3.77;;
8572;SDS011;4324;42.012;24.872;2023-03-14T03:27:42;3.97;;;3.27;;
8572;SDS011;4324;42.012;24.872;2023-03-14T03:30:09;6.90;;;3.47;;
8572;SDS011;4324;42.012;24.872;2023-03-14T03:32:38;6.90;;;4.27;;
8572;SDS011;4324;42.012;24.872;2023-03-14T03:35:05;7.13;;;4.37;;
8572;SDS011;4324;42.012;24.872;2023-03-14T03:37:33;6.77;;;4.10;;
8572;SDS011;4324;42.012;24.872;2023-03-14T03:40:01;4.43;;;3.50;;
8572;SDS011;4324;42.012;24.872;2023-03-14T03:42:30;5.10;;;3.50;;
8572;SDS011;4324;42.012;24.872;2023-03-14T03:44:57;4.40;;;3.90;;
8572;SDS011;4324;42.012;24.872;2023-03-14T03:47:23;4.00;;;3.27;;
8572;SDS011;4324;42.012;24.872;2023-03-14T03:49:52;4.20;;;3.40;;
8572;SDS011;4324;42.012;24.872;2023-03-14T03:52:18;4.37;;;2.97;;
8572;SDS011;4324;42.012;24.872;2023-03-14T03:54:45;7.40;;;3.10;;
8572;SDS011;4324;42.012;24.872;2023-03-14T03:57:12;3.03;;;2.73;;
8572;SDS011;4324;42.012;24.872;2023-03-14T03:59:39;3.63;;;2.93;;
8572;SDS011;4324;42.012;24.872;2023-03-14T04:02:06;3.47;;;2.97;;
8572;SDS011;4324;42.012;24.872;2023-03-14T04:04:33;3.83;;;3.27;;
8572;SDS011;4324;42.012;24.872;2023-03-14T04:07:01;3.37;;;3.03;;
8572;SDS011;4324;42.012;24.872;2023-03-14T04:09:29;4.97;;;3.60;;
8572;SDS011;4324;42.012;24.872;2023-03-14T04:11:55;5.63;;;3.53;;
8572;SDS011;4324;42.012;24.872;2023-03-14T04:14:22;4.33;;;3.20;;
8572;SDS011;4324;42.012;24.872;2023-03-14T04:16:49;3.80;;;3.40;;
8572;SDS011;4324;42.012;24.872;2023-03-14T04:19:16;4.70;;;3.40;;
8572;SDS011;4324;42.012;24.872;2023-03-14T04:21:43;3.77;;;3.00;;
8572;SDS011;4324;42.012;24.872;2023-03-14T04:24:13;5.67;;;3.03;;
8572;SDS011;4324;42.012;24.872;2023-03-14T04:26:40;4.30;;;2.90;;
8572;SDS011;4324;42.012;24.872;2023-03-14T04:29:07;4.90;;;3.00;;
8572;SDS011;4324;42.012;24.872;2023-03-14T04:31:34;4.33;;;2.33;;
8572;SDS011;4324;42.012;24.872;2023-03-14T04:34:01;3.00;;;2.37;;
8572;SDS011;4324;42.012;24.872;2023-03-14T04:36:28;3.10;;;2.53;;
8572;SDS011;4324;42.012;24.872;2023-03-14T04:38:55;3.27;;;2.63;;
8572;SDS011;4324;42.012;24.872;2023-03-14T04:41:23;2.93;;;2.30;;
8572;SDS011;4324;42.012;24.872;2023-03-14T04:43:50;4.07;;;2.70;;
8572;SDS011;4324;42.012;24.872;2023-03-14T04:46:17;2.90;;;2.50;;
8572;SDS011;4324;42.012;24.872;2023-03-14T04:48:43;4.63;;;3.70;;
8572;SDS011;4324;42.012;24.872;2023-03-14T04:51:10;5.40;;;2.40;;
8572;SDS011;4324;42.012;24.872;2023-03-14T04:53:37;4.60;;;2.90;;
8572;SDS011;4324;42.012;24.872;2023-03-14T04:56:04;3.73;;;3.27;;
8572;SDS011;4324;42.012;24.872;2023-03-14T04:58:33;2.77;;;2.57;;
8572;SDS011;4324;42.012;24.872;2023-03-14T05:01:03;4.17;;;2.77;;
8572;SDS011;4324;42.012;24.872;2023-03-14T05:03:31;5.40;;;3.60;;
8572;SDS011;4324;42.012;24.872;2023-03-14T05:05:58;4.87;;;3.90;;
8572;SDS011;4324;42.012;24.872;2023-03-14T05:08:25;10.33;;;7.23;;
8572;SDS011;4324;42.012;24.872;2023-03-14T05:10:53;8.50;;;6.97;;
8572;SDS011;4324;42.012;24.872;2023-03-14T05:13:20;11.00;;;7.77;;
8572;SDS011;4324;42.012;24.872;2023-03-14T05:18:59;7.97;;;6.03;;
8572;SDS011;4324;42.012;24.872;2023-03-14T05:21:27;12.07;;;6.10;;
8572;SDS011;4324;42.012;24.872;2023-03-14T05:23:54;8.00;;;6.17;;
8572;SDS011;4324;42.012;24.872;2023-03-14T05:26:21;8.53;;;5.93;;
8572;SDS011;4324;42.012;24.872;2023-03-14T05:28:47;9.20;;;6.17;;
8572;SDS011;4324;42.012;24.872;2023-03-14T05:31:15;9.27;;;6.57;;
8572;SDS011;4324;42.012;24.872;2023-03-14T05:33:41;12.20;;;7.40;;
8572;SDS011;4324;42.012;24.872;2023-03-14T05:36:10;9.87;;;7.03;;
8572;SDS011;4324;42.012;24.872;2023-03-14T05:38:37;12.77;;;8.77;;
8572;SDS011;4324;42.012;24.872;2023-03-14T05:41:04;11.80;;;8.73;;
8572;SDS011;4324;42.012;24.872;2023-03-14T05:43:31;17.07;;;11.13;;
8572;SDS011;4324;42.012;24.872;2023-03-14T05:45:58;18.73;;;10.40;;
8572;SDS011;4324;42.012;24.872;2023-03-14T05:48:25;14.07;;;8.03;;
8572;SDS011;4324;42.012;24.872;2023-03-14T05:50:54;10.70;;;9.37;;
8572;SDS011;4324;42.012;24.872;2023-03-14T05:53:23;10.40;;;8.03;;
8572;SDS011;4324;42.012;24.872;2023-03-14T05:55:51;11.07;;;6.97;;
8572;SDS011;4324;42.012;24.872;2023-03-14T05:58:18;13.10;;;8.40;;
8572;SDS011;4324;42.012;24.872;2023-03-14T06:00:45;15.73;;;8.63;;
8572;SDS011;4324;42.012;24.872;2023-03-14T06:03:12;11.23;;;7.33;;
8572;SDS011;4324;42.012;24.872;2023-03-14T06:05:39;14.07;;;7.67;;
8572;SDS011;4324;42.012;24.872;2023-03-14T06:08:12;11.63;;;8.10;;
8572;SDS011;4324;42.012;24.872;2023-03-14T06:11:04;15.97;;;8.87;;
8572;SDS011;4324;42.012;24.872;2023-03-14T06:13:35;22.00;;;10.50;;
8572;SDS011;4324;42.012;24.872;2023-03-14T06:16:02;15.47;;;10.27;;
8572;SDS011;4324;42.012;24.872;2023-03-14T06:18:30;16.13;;;9.47;;
8572;SDS011;4324;42.012;24.872;2023-03-14T06:20:58;17.43;;;10.67;;
8572;SDS011;4324;42.012;24.872;2023-03-14T06:23:25;13.03;;;9.73;;
8572;SDS011;4324;42.012;24.872;2023-03-14T06:25:56;11.17;;;9.37;;
8572;SDS011;4324;42.012;24.872;2023-03-14T06:28:24;14.90;;;10.53;;
8572;SDS011;4324;42.012;24.872;2023-03-14T06:30:51;17.40;;;9.87;;
8572;SDS011;4324;42.012;24.872;2023-03-14T06:33:18;13.60;;;10.23;;
8572;SDS011;4324;42.012;24.872;2023-03-14T06:35:45;15.60;;;10.07;;
8572;SDS011;4324;42.012;24.872;2023-03-14T06:38:13;13.33;;;10.27;;
8572;SDS011;4324;42.012;24.872;2023-03-14T06:40:44;11.93;;;9.77;;
8572;SDS011;4324;42.012;24.872;2023-03-14T06:43:19;11.67;;;9.50;;
8572;SDS011;4324;42.012;24.872;2023-03-14T06:45:46;11.20;;;9.20;;
8572;SDS011;4324;42.012;24.872;2023-03-14T06:48:13;12.73;;;8.80;;
8572;SDS011;4324;42.012;24.872;2023-03-14T06:50:40;13.23;;;10.27;;
8572;SDS011;4324;42.012;24.872;2023-03-14T06:53:11;11.17;;;9.30;;
8572;SDS011;4324;42.012;24.872;2023-03-14T06:55:40;16.83;;;9.97;;
8572;SDS011;4324;42.012;24.872;2023-03-14T06:58:08;13.73;;;10.63;;
8572;SDS011;4324;42.012;24.872;2023-03-14T07:00:36;14.40;;;9.17;;
8572;SDS011;4324;42.012;24.872;2023-03-14T07:03:03;14.83;;;9.70;;
8572;SDS011;4324;42.012;24.872;2023-03-14T07:05:30;14.97;;;10.20;;
8572;SDS011;4324;42.012;24.872;2023-03-14T07:07:57;16.10;;;10.20;;
8572;SDS011;4324;42.012;24.872;2023-03-14T07:10:24;11.33;;;9.60;;
8572;SDS011;4324;42.012;24.872;2023-03-14T07:12:51;18.07;;;9.93;;
8572;SDS011;4324;42.012;24.872;2023-03-14T07:15:19;13.07;;;9.47;;
8572;SDS011;4324;42.012;24.872;2023-03-14T07:17:47;11.27;;;9.10;;
8572;SDS011;4324;42.012;24.872;2023-03-14T07:20:14;13.03;;;9.50;;
8572;SDS011;4324;42.012;24.872;2023-03-14T07:22:41;12.73;;;8.27;;
8572;SDS011;4324;42.012;24.872;2023-03-14T07:25:08;10.87;;;9.23;;
8572;SDS011;4324;42.012;24.872;2023-03-14T07:27:37;14.33;;;9.53;;
8572;SDS011;4324;42.012;24.872;2023-03-14T07:30:04;15.20;;;10.37;;
8572;SDS011;4324;42.012;24.872;2023-03-14T07:32:32;15.30;;;10.37;;
8572;SDS011;4324;42.012;24.872;2023-03-14T07:35:00;19.87;;;10.87;;
8572;SDS011;4324;42.012;24.872;2023-03-14T07:37:27;12.07;;;8.83;;
8572;SDS011;4324;42.012;24.872;2023-03-14T07:39:54;11.57;;;8.60;;
8572;SDS011;4324;42.012;24.872;2023-03-14T07:42:21;12.03;;;8.10;;
8572;SDS011;4324;42.012;24.872;2023-03-14T07:44:48;10.47;;;8.17;;
8572;SDS011;4324;42.012;24.872;2023-03-14T07:47:15;13.30;;;10.83;;
8572;SDS011;4324;42.012;24.872;2023-03-14T07:49:45;16.03;;;10.83;;
8572;SDS011;4324;42.012;24.872;2023-03-14T07:52:13;18.47;;;12.87;;
8572;SDS011;4324;42.012;24.872;2023-03-14T07:54:40;13.90;;;10.00;;
8572;SDS011;4324;42.012;24.872;2023-03-14T07:57:07;20.10;;;13.60;;
8572;SDS011;4324;42.012;24.872;2023-03-14T07:59:36;12.43;;;9.00;;
8572;SDS011;4324;42.012;24.872;2023-03-14T08:02:03;11.67;;;8.03;;
8572;SDS011;4324;42.012;24.872;2023-03-14T08:04:30;13.47;;;9.13;;
8572;SDS011;4324;42.012;24.872;2023-03-14T08:06:57;11.00;;;8.10;;
8572;SDS011;4324;42.012;24.872;2023-03-14T08:09:26;15.30;;;11.83;;
8572;SDS011;4324;42.012;24.872;2023-03-14T08:11:56;16.70;;;12.37;;
8572;SDS011;4324;42.012;24.872;2023-03-14T08:14:23;13.53;;;10.50;;
8572;SDS011;4324;42.012;24.872;2023-03-14T08:16:51;21.50;;;16.13;;
8572;SDS011;4324;42.012;24.872;2023-03-14T08:19:18;14.57;;;12.13;;
8572;SDS011;4324;42.012;24.872;2023-03-14T08:21:46;15.30;;;7.17;;
8572;SDS011;4324;42.012;24.872;2023-03-14T08:24:12;10.73;;;6.83;;
8572;SDS011;4324;42.012;24.872;2023-03-14T08:26:41;10.03;;;6.73;;
8572;SDS011;4324;42.012;24.872;2023-03-14T08:29:07;10.27;;;6.40;;
8572;SDS011;4324;42.012;24.872;2023-03-14T08:31:34;10.27;;;6.77;;
8572;SDS011;4324;42.012;24.872;2023-03-14T08:34:02;10.50;;;7.33;;
8572;SDS011;4324;42.012;24.872;2023-03-14T08:36:29;8.67;;;6.50;;
8572;SDS011;4324;42.012;24.872;2023-03-14T08:38:56;8.47;;;6.37;;
8572;SDS011;4324;42.012;24.872;2023-03-14T08:41:23;8.97;;;5.60;;
8572;SDS011;4324;42.012;24.872;2023-03-14T08:43:51;8.87;;;5.80;;
8572;SDS011;4324;42.012;24.872;2023-03-14T08:46:21;10.67;;;7.03;;
8572;SDS011;4324;42.012;24.872;2023-03-14T08:48:49;8.03;;;5.87;;
8572;SDS011;4324;42.012;24.872;2023-03-14T08:51:16;9.23;;;5.57;;
8572;SDS011;4324;42.012;24.872;2023-03-14T08:53:43;6.67;;;5.37;;
8572;SDS011;4324;42.012;24.872;2023-03-14T08:56:10;7.93;;;5.20;;
8572;SDS011;4324;42.012;24.872;2023-03-14T08:58:37;6.13;;;5.17;;
8572;SDS011;4324;42.012;24.872;2023-03-14T09:01:07;7.53;;;4.87;;
8572;SDS011;4324;42.012;24.872;2023-03-14T09:03:34;8.43;;;4.97;;
8572;SDS011;4324;42.012;24.872;2023-03-14T09:06:02;7.07;;;5.30;;
8572;SDS011;4324;42.012;24.872;2023-03-14T09:08:30;14.73;;;7.63;;
8572;SDS011;4324;42.012;24.872;2023-03-14T09:10:57;10.47;;;5.53;;
8572;SDS011;4324;42.012;24.872;2023-03-14T09:13:24;6.00;;;4.97;;
8572;SDS011;4324;42.012;24.872;2023-03-14T09:15:51;9.50;;;5.30;;
8572;SDS011;4324;42.012;24.872;2023-03-14T09:18:19;6.60;;;5.90;;
8572;SDS011;4324;42.012;24.872;2023-03-14T09:20:47;6.77;;;5.03;;
8572;SDS011;4324;42.012;24.872;2023-03-14T09:23:17;7.73;;;4.97;;
8572;SDS011;4324;42.012;24.872;2023-03-14T09:25:43;7.23;;;5.50;;
8572;SDS011;4324;42.012;24.872;2023-03-14T09:28:10;6.67;;;4.93;;
8572;SDS011;4324;42.012;24.872;2023-03-14T09:30:38;6.47;;;5.30;;
8572;SDS011;4324;42.012;24.872;2023-03-14T09:33:08;6.97;;;5.67;;
8572;SDS011;4324;42.012;24.872;2023-03-14T09:35:36;7.73;;;5.23;;
8572;SDS011;4324;42.012;24.872;2023-03-14T09:38:03;8.47;;;5.37;;
8572;SDS011;4324;42.012;24.872;2023-03-14T09:40:31;9.83;;;7.07;;
8572;SDS011;4324;42.012;24.872;2023-03-14T09:43:01;7.23;;;5.90;;
8572;SDS011;4324;42.012;24.872;2023-03-14T09:45:31;6.37;;;5.63;;
8572;SDS011;4324;42.012;24.872;2023-03-14T09:48:03;10.90;;;7.13;;
8572;SDS011;4324;42.012;24.872;2023-03-14T09:50:33;9.00;;;7.17;;
8572;SDS011;4324;42.012;24.872;2023-03-14T09:53:06;10.33;;;7.57;;
8572;SDS011;4324;42.012;24.872;2023-03-14T09:55:39;8.73;;;7.23;;
8572;SDS011;4324;42.012;24.872;2023-03-14T09:58:09;8.50;;;6.37;;
8572;SDS011;4324;42.012;24.872;2023-03-14T10:00:38;7.80;;;6.63;;
8572;SDS011;4324;42.012;24.872;2023-03-14T10:03:14;7.57;;;5.47;;
8572;SDS011;4324;42.012;24.872;2023-03-14T10:05:50;6.33;;;5.53;;
8572;SDS011;4324;42.012;24.872;2023-03-14T10:08:21;6.40;;;5.47;;
8572;SDS011;4324;42.012;24.872;2023-03-14T10:10:48;8.37;;;7.10;;
8572;SDS011;4324;42.012;24.872;2023-03-14T10:13:16;9.30;;;5.67;;
8572;SDS011;4324;42.012;24.872;2023-03-14T10:15:47;5.80;;;5.30;;
8572;SDS011;4324;42.012;24.872;2023-03-14T10:18:19;6.83;;;5.60;;
8572;SDS011;4324;42.012;24.872;2023-03-14T10:20:47;7.77;;;5.70;;
8572;SDS011;4324;42.012;24.872;2023-03-14T10:23:39;5.63;;;5.03;;
8572;SDS011;4324;42.012;24.872;2023-03-14T10:26:24;6.30;;;5.27;;
8572;SDS011;4324;42.012;24.872;2023-03-14T10:29:26;8.00;;;5.63;;
8572;SDS011;4324;42.012;24.872;2023-03-14T10:32:10;7.57;;;6.37;;
8572;SDS011;4324;42.012;24.872;2023-03-14T10:34:46;9.87;;;6.83;;
8572;SDS011;4324;42.012;24.872;2023-03-14T10:40:18;8.00;;;5.97;;
8572;SDS011;4324;42.012;24.872;2023-03-14T10:42:47;17.93;;;6.63;;
8572;SDS011;4324;42.012;24.872;2023-03-14T10:45:27;8.17;;;6.40;;
8572;SDS011;4324;42.012;24.872;2023-03-14T10:50:54;6.50;;;5.80;;
8572;SDS011;4324;42.012;24.872;2023-03-14T10:53:24;7.17;;;5.60;;
8572;SDS011;4324;42.012;24.872;2023-03-14T10:55:51;7.67;;;6.13;;
8572;SDS011;4324;42.012;24.872;2023-03-14T10:58:20;7.67;;;6.33;;
8572;SDS011;4324;42.012;24.872;2023-03-14T11:00:50;7.60;;;6.77;;
8572;SDS011;4324;42.012;24.872;2023-03-14T11:03:24;11.40;;;8.20;;
8572;SDS011;4324;42.012;24.872;2023-03-14T11:05:57;7.87;;;5.87;;
8572;SDS011;4324;42.012;24.872;2023-03-14T11:08:33;7.50;;;5.83;;
8572;SDS011;4324;42.012;24.872;2023-03-14T11:11:11;6.43;;;5.83;;
8572;SDS011;4324;42.012;24.872;2023-03-14T11:13:47;7.30;;;6.00;;
8572;SDS011;4324;42.012;24.872;2023-03-14T11:16:25;6.30;;;5.70;;
8572;SDS011;4324;42.012;24.872;2023-03-14T11:19:03;6.10;;;5.57;;
8572;SDS011;4324;42.012;24.872;2023-03-14T11:22:21;6.47;;;5.77;;
8572;SDS011;4324;42.012;24.872;2023-03-14T11:24:58;7.93;;;6.00;;
8572;SDS011;4324;42.012;24.872;2023-03-14T11:27:41;7.60;;;5.70;;
8572;SDS011;4324;42.012;24.872;2023-03-14T11:30:16;6.83;;;5.93;;
8572;SDS011;4324;42.012;24.872;2023-03-14T11:32:46;9.93;;;7.13;;
8572;SDS011;4324;42.012;24.872;2023-03-14T11:35:22;6.17;;;5.57;;
8572;SDS011;4324;42.012;24.872;2023-03-14T11:37:53;7.17;;;6.13;;
8572;SDS011;4324;42.012;24.872;2023-03-14T11:40:25;6.40;;;5.63;;
8572;SDS011;4324;42.012;24.872;2023-03-14T11:42:54;6.30;;;5.30;;
8572;SDS011;4324;42.012;24.872;2023-03-14T11:45:28;6.57;;;5.47;;
8572;SDS011;4324;42.012;24.872;2023-03-14T11:48:06;6.20;;;5.60;;
8572;SDS011;4324;42.012;24.872;2023-03-14T11:50:39;6.00;;;5.40;;
8572;SDS011;4324;42.012;24.872;2023-03-14T11:53:09;9.20;;;6.93;;
8572;SDS011;4324;42.012;24.872;2023-03-14T11:55:44;7.70;;;6.03;;
8572;SDS011;4324;42.012;24.872;2023-03-14T11:58:13;5.60;;;5.00;;
8572;SDS011;4324;42.012;24.872;2023-03-14T12:00:47;5.73;;;4.90;;
8572;SDS011;4324;42.012;24.872;2023-03-14T12:03:19;7.83;;;5.80;;
8572;SDS011;4324;42.012;24.872;2023-03-14T12:05:58;8.57;;;6.60;;
8572;SDS011;4324;42.012;24.872;2023-03-14T12:08:39;8.13;;;5.87;;
8572;SDS011;4324;42.012;24.872;2023-03-14T12:11:14;6.20;;;5.60;;
8572;SDS011;4324;42.012;24.872;2023-03-14T12:13:51;6.87;;;5.63;;
8572;SDS011;4324;42.012;24.872;2023-03-14T12:16:35;7.23;;;5.50;;
8572;SDS011;4324;42.012;24.872;2023-03-14T12:19:14;6.47;;;5.00;;
8572;SDS011;4324;42.012;24.872;2023-03-14T12:22:13;7.73;;;6.77;;
8572;SDS011;4324;42.012;24.872;2023-03-14T12:25:12;7.87;;;5.23;;
8572;SDS011;4324;42.012;24.872;2023-03-14T12:34:26;6.43;;;5.40;;
8572;SDS011;4324;42.012;24.872;2023-03-14T12:40:02;7.70;;;4.47;;
8572;SDS011;4324;42.012;24.872;2023-03-14T12:42:43;4.93;;;4.47;;
8572;SDS011;4324;42.012;24.872;2023-03-14T12:45:26;6.47;;;4.70;;
8572;SDS011;4324;42.012;24.872;2023-03-14T12:47:59;5.70;;;4.80;;
8572;SDS011;4324;42.012;24.872;2023-03-14T12:50:36;7.00;;;5.47;;
8572;SDS011;4324;42.012;24.872;2023-03-14T12:56:24;5.67;;;5.10;;
8572;SDS011;4324;42.012;24.872;2023-03-14T12:59:07;6.80;;;6.17;;
8572;SDS011;4324;42.012;24.872;2023-03-14T13:01:53;5.67;;;5.17;;
8572;SDS011;4324;42.012;24.872;2023-03-14T13:04:26;8.13;;;6.47;;
8572;SDS011;4324;42.012;24.872;2023-03-14T13:07:02;8.67;;;6.97;;
8572;SDS011;4324;42.012;24.872;2023-03-14T13:12:55;7.63;;;5.27;;
8572;SDS011;4324;42.012;24.872;2023-03-14T13:15:24;6.00;;;5.00;;
8572;SDS011;4324;42.012;24.872;2023-03-14T13:17:59;6.57;;;5.93;;
8572;SDS011;4324;42.012;24.872;2023-03-14T13:20:29;7.20;;;5.87;;
8572;SDS011;4324;42.012;24.872;2023-03-14T13:22:59;7.70;;;5.07;;
8572;SDS011;4324;42.012;24.872;2023-03-14T13:25:29;7.13;;;5.07;;
8572;SDS011;4324;42.012;24.872;2023-03-14T13:28:01;6.07;;;4.97;;
8572;SDS011;4324;42.012;24.872;2023-03-14T13:30:35;6.50;;;5.40;;
8572;SDS011;4324;42.012;24.872;2023-03-14T13:33:12;15.03;;;12.70;;
8572;SDS011;4324;42.012;24.872;2023-03-14T13:35:41;6.43;;;4.93;;
8572;SDS011;4324;42.012;24.872;2023-03-14T13:38:18;7.00;;;4.90;;
8572;SDS011;4324;42.012;24.872;2023-03-14T13:40:48;5.33;;;4.80;;
8572;SDS011;4324;42.012;24.872;2023-03-14T13:43:20;6.20;;;4.53;;
8572;SDS011;4324;42.012;24.872;2023-03-14T13:45:52;4.70;;;4.20;;
8572;SDS011;4324;42.012;24.872;2023-03-14T13:48:25;5.77;;;4.80;;
8572;SDS011;4324;42.012;24.872;2023-03-14T13:50:55;5.03;;;4.53;;
8572;SDS011;4324;42.012;24.872;2023-03-14T13:53:25;6.30;;;5.17;;
8572;SDS011;4324;42.012;24.872;2023-03-14T13:55:53;7.03;;;5.30;;
8572;SDS011;4324;42.012;24.872;2023-03-14T13:58:21;6.57;;;4.53;;
8572;SDS011;4324;42.012;24.872;2023-03-14T14:01:00;5.93;;;5.00;;
8572;SDS011;4324;42.012;24.872;2023-03-14T14:03:32;7.57;;;5.53;;
8572;SDS011;4324;42.012;24.872;2023-03-14T14:06:03;7.47;;;5.90;;
8572;SDS011;4324;42.012;24.872;2023-03-14T14:08:34;10.27;;;5.83;;
8572;SDS011;4324;42.012;24.872;2023-03-14T14:13:59;8.10;;;6.23;;
8572;SDS011;4324;42.012;24.872;2023-03-14T14:16:38;6.43;;;5.53;;
8572;SDS011;4324;42.012;24.872;2023-03-14T14:19:11;8.67;;;5.87;;
8572;SDS011;4324;42.012;24.872;2023-03-14T14:21:40;6.10;;;5.50;;
8572;SDS011;4324;42.012;24.872;2023-03-14T14:24:08;6.27;;;5.27;;
8572;SDS011;4324;42.012;24.872;2023-03-14T14:26:47;5.30;;;4.70;;
8572;SDS011;4324;42.012;24.872;2023-03-14T14:29:21;6.30;;;4.73;;
8572;SDS011;4324;42.012;24.872;2023-03-14T14:32:03;7.00;;;5.80;;
8572;SDS011;4324;42.012;24.872;2023-03-14T14:34:42;5.87;;;5.27;;
8572;SDS011;4324;42.012;24.872;2023-03-14T14:37:18;8.07;;;5.40;;
8572;SDS011;4324;42.012;24.872;2023-03-14T14:39:51;7.00;;;4.90;;
8572;SDS011;4324;42.012;24.872;2023-03-14T14:42:25;4.80;;;4.27;;
8572;SDS011;4324;42.012;24.872;2023-03-14T14:44:55;5.50;;;4.87;;
8572;SDS011;4324;42.012;24.872;2023-03-14T14:47:25;4.87;;;3.47;;
8572;SDS011;4324;42.012;24.872;2023-03-14T14:49:58;4.77;;;3.27;;
8572;SDS011;4324;42.012;24.872;2023-03-14T14:52:31;5.23;;;4.73;;
8572;SDS011;4324;42.012;24.872;2023-03-14T14:55:31;5.80;;;3.57;;
8572;SDS011;4324;42.012;24.872;2023-03-14T14:58:16;3.43;;;3.13;;
8572;SDS011;4324;42.012;24.872;2023-03-14T15:00:49;4.93;;;3.57;;
8572;SDS011;4324;42.012;24.872;2023-03-14T15:03:20;3.20;;;2.90;;
8572;SDS011;4324;42.012;24.872;2023-03-14T15:05:48;6.23;;;3.47;;
8572;SDS011;4324;42.012;24.872;2023-03-14T15:08:23;5.13;;;4.00;;
8572;SDS011;4324;42.012;24.872;2023-03-14T15:11:11;6.33;;;4.80;;
8572;SDS011;4324;42.012;24.872;2023-03-14T15:14:01;3.90;;;3.50;;
8572;SDS011;4324;42.012;24.872;2023-03-14T15:16:29;4.97;;;3.63;;
8572;SDS011;4324;42.012;24.872;2023-03-14T15:18:57;4.80;;;3.17;;
8572;SDS011;4324;42.012;24.872;2023-03-14T15:21:28;4.13;;;3.60;;
8572;SDS011;4324;42.012;24.872;2023-03-14T15:23:59;5.00;;;3.60;;
8572;SDS011;4324;42.012;24.872;2023-03-14T15:26:27;3.07;;;2.77;;
8572;SDS011;4324;42.012;24.872;2023-03-14T15:28:54;3.53;;;2.87;;
8572;SDS011;4324;42.012;24.872;2023-03-14T15:31:21;6.20;;;3.67;;
8572;SDS011;4324;42.012;24.872;2023-03-14T15:33:48;6.43;;;4.33;;
8572;SDS011;4324;42.012;24.872;2023-03-14T15:36:21;4.73;;;3.80;;
8572;SDS011;4324;42.012;24.872;2023-03-14T15:38:56;3.93;;;3.40;;
8572;SDS011;4324;42.012;24.872;2023-03-14T15:41:25;7.60;;;4.17;;
8572;SDS011;4324;42.012;24.872;2023-03-14T15:43:58;4.97;;;4.03;;
8572;SDS011;4324;42.012;24.872;2023-03-14T15:46:30;7.20;;;4.60;;
8572;SDS011;4324;42.012;24.872;2023-03-14T15:48:57;4.03;;;3.27;;